sensor_id;sensor_type;location;lat;lon;timestamp;P1;durP1;ratioP1;P2;durP2;ratioP2
419;SDS011;42600;54.408;13.016;2022-09-13T00:02:10;6.50;;;2.50;;
419;SDS011;42600;54.408;13.016;2022-09-13T00:04:37;3.93;;;1.87;;
419;SDS011;42600;54.408;13.016;2022-09-13T00:07:03;2.60;;;1.30;;
419;SDS011;42600;54.408;13.016;2022-09-13T00:09:31;3.57;;;2.33;;
419;SDS011;42600;54.408;13.016;2022-09-13T00:11:58;1.80;;;1.67;;
419;SDS011;42600;54.408;13.016;2022-09-13T00:14:25;2.60;;;1.77;;
419;SDS011;42600;54.408;13.016;2022-09-13T00:16:52;2.80;;;1.50;;
419;SDS011;42600;54.408;13.016;2022-09-13T00:19:19;3.20;;;2.20;;
419;SDS011;42600;54.408;13.016;2022-09-13T00:21:45;5.97;;;2.10;;
419;SDS011;42600;54.408;13.016;2022-09-13T00:24:12;2.90;;;1.77;;
419;SDS011;42600;54.408;13.016;2022-09-13T00:26:40;3.23;;;1.73;;
419;SDS011;42600;54.408;13.016;2022-09-13T00:29:07;3.63;;;1.87;;
419;SDS011;42600;54.408;13.016;2022-09-13T00:31:33;2.90;;;1.60;;
419;SDS011;42600;54.408;13.016;2022-09-13T00:34:00;3.77;;;1.73;;
419;SDS011;42600;54.408;13.016;2022-09-13T00:36:26;4.20;;;2.10;;
419;SDS011;42600;54.408;13.016;2022-09-13T00:38:54;4.40;;;1.57;;
419;SDS011;42600;54.408;13.016;2022-09-13T00:41:20;4.07;;;2.20;;
419;SDS011;42600;54.408;13.016;2022-09-13T00:43:49;3.17;;;1.87;;
419;SDS011;42600;54.408;13.016;2022-09-13T00:46:20;3.03;;;1.27;;
419;SDS011;42600;54.408;13.016;2022-09-13T00:48:54;3.30;;;2.23;;
419;SDS011;42600;54.408;13.016;2022-09-13T00:51:24;5.70;;;2.33;;
419;SDS011;42600;54.408;13.016;2022-09-13T00:53:52;6.27;;;2.57;;
419;SDS011;42600;54.408;13.016;2022-09-13T00:56:24;3.33;;;1.70;;
419;SDS011;42600;54.408;13.016;2022-09-13T00:58:57;3.50;;;2.00;;
419;SDS011;42600;54.408;13.016;2022-09-13T01:01:27;2.43;;;1.60;;
419;SDS011;42600;54.408;13.016;2022-09-13T01:03:58;2.70;;;1.37;;
419;SDS011;42600;54.408;13.016;2022-09-13T01:06:27;3.17;;;2.20;;
419;SDS011;42600;54.408;13.016;2022-09-13T01:08:57;2.50;;;1.50;;
419;SDS011;42600;54.408;13.016;2022-09-13T01:11:29;2.37;;;1.67;;
419;SDS011;42600;54.408;13.016;2022-09-13T01:14:01;10.13;;;2.00;;
419;SDS011;42600;54.408;13.016;2022-09-13T01:16:29;3.97;;;1.87;;
419;SDS011;42600;54.408;13.016;2022-09-13T01:18:57;3.30;;;1.60;;
419;SDS011;42600;54.408;13.016;2022-09-13T01:21:30;4.57;;;2.13;;
419;SDS011;42600;54.408;13.016;2022-09-13T01:27:26;3.53;;;1.50;;
419;SDS011;42600;54.408;13.016;2022-09-13T01:30:11;2.80;;;1.33;;
419;SDS011;42600;54.408;13.016;2022-09-13T01:32:50;3.53;;;1.90;;
419;SDS011;42600;54.408;13.016;2022-09-13T01:35:34;3.83;;;1.73;;
419;SDS011;42600;54.408;13.016;2022-09-13T01:38:15;4.20;;;1.90;;
419;SDS011;42600;54.408;13.016;2022-09-13T01:40:59;3.67;;;1.80;;
419;SDS011;42600;54.408;13.016;2022-09-13T01:43:38;4.20;;;1.63;;
419;SDS011;42600;54.408;13.016;2022-09-13T01:46:15;2.97;;;1.60;;
419;SDS011;42600;54.408;13.016;2022-09-13T01:48:54;4.67;;;2.40;;
419;SDS011;42600;54.408;13.016;2022-09-13T01:51:26;2.57;;;1.70;;
419;SDS011;42600;54.408;13.016;2022-09-13T01:53:57;2.57;;;1.60;;
419;SDS011;42600;54.408;13.016;2022-09-13T01:56:35;3.40;;;2.10;;
419;SDS011;42600;54.408;13.016;2022-09-13T01:59:07;7.30;;;2.20;;
419;SDS011;42600;54.408;13.016;2022-09-13T02:01:41;3.03;;;2.17;;
419;SDS011;42600;54.408;13.016;2022-09-13T02:04:14;3.83;;;2.70;;
419;SDS011;42600;54.408;13.016;2022-09-13T02:06:45;4.30;;;1.97;;
419;SDS011;42600;54.408;13.016;2022-09-13T02:09:17;3.27;;;1.80;;
419;SDS011;42600;54.408;13.016;2022-09-13T02:11:47;3.50;;;2.00;;
419;SDS011;42600;54.408;13.016;2022-09-13T02:14:19;3.30;;;1.70;;
419;SDS011;42600;54.408;13.016;2022-09-13T02:16:51;4.50;;;2.00;;
419;SDS011;42600;54.408;13.016;2022-09-13T02:19:25;7.70;;;1.80;;
419;SDS011;42600;54.408;13.016;2022-09-13T02:21:58;3.60;;;1.70;;
419;SDS011;42600;54.408;13.016;2022-09-13T02:24:27;3.60;;;1.73;;
419;SDS011;42600;54.408;13.016;2022-09-13T02:26:57;5.50;;;2.20;;
419;SDS011;42600;54.408;13.016;2022-09-13T02:29:27;2.70;;;1.90;;
419;SDS011;42600;54.408;13.016;2022-09-13T02:31:57;5.67;;;1.70;;
419;SDS011;42600;54.408;13.016;2022-09-13T02:34:30;3.10;;;1.80;;
419;SDS011;42600;54.408;13.016;2022-09-13T02:37:02;5.73;;;2.27;;
419;SDS011;42600;54.408;13.016;2022-09-13T02:39:32;5.83;;;2.40;;
419;SDS011;42600;54.408;13.016;2022-09-13T02:42:02;4.10;;;1.90;;
419;SDS011;42600;54.408;13.016;2022-09-13T02:44:34;3.20;;;1.53;;
419;SDS011;42600;54.408;13.016;2022-09-13T02:47:09;4.93;;;1.97;;
419;SDS011;42600;54.408;13.016;2022-09-13T02:49:53;5.07;;;2.57;;
419;SDS011;42600;54.408;13.016;2022-09-13T02:52:28;2.70;;;1.57;;
419;SDS011;42600;54.408;13.016;2022-09-13T02:55:04;3.40;;;2.33;;
419;SDS011;42600;54.408;13.016;2022-09-13T02:57:39;5.47;;;3.20;;
419;SDS011;42600;54.408;13.016;2022-09-13T03:00:13;2.77;;;1.43;;
419;SDS011;42600;54.408;13.016;2022-09-13T03:02:41;4.60;;;2.87;;
419;SDS011;42600;54.408;13.016;2022-09-13T03:05:10;8.70;;;3.33;;
419;SDS011;42600;54.408;13.016;2022-09-13T03:07:37;3.77;;;2.00;;
419;SDS011;42600;54.408;13.016;2022-09-13T03:10:04;4.83;;;2.30;;
419;SDS011;42600;54.408;13.016;2022-09-13T03:12:50;4.13;;;2.50;;
419;SDS011;42600;54.408;13.016;2022-09-13T03:15:33;5.00;;;2.60;;
419;SDS011;42600;54.408;13.016;2022-09-13T03:18:14;2.87;;;2.00;;
419;SDS011;42600;54.408;13.016;2022-09-13T03:20:52;5.17;;;2.20;;
419;SDS011;42600;54.408;13.016;2022-09-13T03:23:36;4.60;;;2.03;;
419;SDS011;42600;54.408;13.016;2022-09-13T03:26:14;5.17;;;2.23;;
419;SDS011;42600;54.408;13.016;2022-09-13T03:28:53;4.17;;;1.37;;
419;SDS011;42600;54.408;13.016;2022-09-13T03:31:29;4.10;;;2.10;;
419;SDS011;42600;54.408;13.016;2022-09-13T03:34:02;4.10;;;2.13;;
419;SDS011;42600;54.408;13.016;2022-09-13T03:36:35;4.37;;;2.30;;
419;SDS011;42600;54.408;13.016;2022-09-13T03:39:07;3.40;;;2.23;;
419;SDS011;42600;54.408;13.016;2022-09-13T03:41:38;6.07;;;2.67;;
419;SDS011;42600;54.408;13.016;2022-09-13T03:44:10;6.80;;;2.90;;
419;SDS011;42600;54.408;13.016;2022-09-13T03:46:39;8.30;;;2.97;;
419;SDS011;42600;54.408;13.016;2022-09-13T03:49:09;5.93;;;2.83;;
419;SDS011;42600;54.408;13.016;2022-09-13T03:51:39;8.20;;;3.30;;
419;SDS011;42600;54.408;13.016;2022-09-13T03:54:07;4.37;;;2.70;;
419;SDS011;42600;54.408;13.016;2022-09-13T03:56:39;4.00;;;2.53;;
419;SDS011;42600;54.408;13.016;2022-09-13T03:59:06;4.57;;;2.57;;
419;SDS011;42600;54.408;13.016;2022-09-13T04:01:32;5.90;;;2.73;;
419;SDS011;42600;54.408;13.016;2022-09-13T04:03:59;7.50;;;2.90;;
419;SDS011;42600;54.408;13.016;2022-09-13T04:06:27;3.40;;;1.90;;
419;SDS011;42600;54.408;13.016;2022-09-13T04:08:53;4.47;;;2.60;;
419;SDS011;42600;54.408;13.016;2022-09-13T04:11:21;4.53;;;2.33;;
419;SDS011;42600;54.408;13.016;2022-09-13T04:13:48;4.63;;;2.70;;
419;SDS011;42600;54.408;13.016;2022-09-13T04:16:15;4.40;;;2.07;;
419;SDS011;42600;54.408;13.016;2022-09-13T04:18:41;2.57;;;2.10;;
419;SDS011;42600;54.408;13.016;2022-09-13T04:21:08;3.63;;;2.10;;
419;SDS011;42600;54.408;13.016;2022-09-13T04:23:36;5.20;;;2.70;;
419;SDS011;42600;54.408;13.016;2022-09-13T04:26:03;4.70;;;2.93;;
419;SDS011;42600;54.408;13.016;2022-09-13T04:28:30;3.97;;;2.43;;
419;SDS011;42600;54.408;13.016;2022-09-13T04:30:57;8.10;;;3.97;;
419;SDS011;42600;54.408;13.016;2022-09-13T04:33:24;3.77;;;2.57;;
419;SDS011;42600;54.408;13.016;2022-09-13T04:35:53;6.93;;;3.10;;
419;SDS011;42600;54.408;13.016;2022-09-13T04:38:22;6.80;;;2.60;;
419;SDS011;42600;54.408;13.016;2022-09-13T04:40:53;4.67;;;2.90;;
419;SDS011;42600;54.408;13.016;2022-09-13T04:43:21;3.33;;;2.63;;
419;SDS011;42600;54.408;13.016;2022-09-13T04:45:48;9.17;;;3.27;;
419;SDS011;42600;54.408;13.016;2022-09-13T04:48:14;5.73;;;1.83;;
419;SDS011;42600;54.408;13.016;2022-09-13T04:50:41;4.13;;;2.30;;
419;SDS011;42600;54.408;13.016;2022-09-13T04:53:08;6.07;;;3.23;;
419;SDS011;42600;54.408;13.016;2022-09-13T04:55:35;5.50;;;2.90;;
419;SDS011;42600;54.408;13.016;2022-09-13T04:58:04;4.20;;;2.27;;
419;SDS011;42600;54.408;13.016;2022-09-13T05:00:31;4.30;;;2.40;;
419;SDS011;42600;54.408;13.016;2022-09-13T05:02:58;4.40;;;2.50;;
419;SDS011;42600;54.408;13.016;2022-09-13T05:05:24;4.07;;;2.77;;
419;SDS011;42600;54.408;13.016;2022-09-13T05:07:52;6.77;;;3.30;;
419;SDS011;42600;54.408;13.016;2022-09-13T05:10:19;2.80;;;1.77;;
419;SDS011;42600;54.408;13.016;2022-09-13T05:12:46;10.63;;;2.97;;
419;SDS011;42600;54.408;13.016;2022-09-13T05:15:14;3.97;;;2.60;;
419;SDS011;42600;54.408;13.016;2022-09-13T05:17:40;4.90;;;2.80;;
419;SDS011;42600;54.408;13.016;2022-09-13T05:20:07;10.37;;;2.63;;
419;SDS011;42600;54.408;13.016;2022-09-13T05:22:35;6.87;;;3.10;;
419;SDS011;42600;54.408;13.016;2022-09-13T05:25:02;4.17;;;2.97;;
419;SDS011;42600;54.408;13.016;2022-09-13T05:27:29;5.07;;;2.90;;
419;SDS011;42600;54.408;13.016;2022-09-13T05:29:55;7.00;;;2.90;;
419;SDS011;42600;54.408;13.016;2022-09-13T05:32:23;5.27;;;3.13;;
419;SDS011;42600;54.408;13.016;2022-09-13T05:34:49;5.00;;;3.13;;
419;SDS011;42600;54.408;13.016;2022-09-13T05:37:17;7.53;;;3.00;;
419;SDS011;42600;54.408;13.016;2022-09-13T05:39:43;6.80;;;3.30;;
419;SDS011;42600;54.408;13.016;2022-09-13T05:42:10;4.07;;;2.80;;
419;SDS011;42600;54.408;13.016;2022-09-13T05:44:36;7.40;;;3.40;;
419;SDS011;42600;54.408;13.016;2022-09-13T05:47:03;4.50;;;3.00;;
419;SDS011;42600;54.408;13.016;2022-09-13T05:49:31;8.80;;;2.50;;
419;SDS011;42600;54.408;13.016;2022-09-13T05:51:58;10.20;;;3.40;;
419;SDS011;42600;54.408;13.016;2022-09-13T05:54:24;7.80;;;2.97;;
419;SDS011;42600;54.408;13.016;2022-09-13T05:56:51;6.00;;;4.23;;
419;SDS011;42600;54.408;13.016;2022-09-13T05:59:21;6.47;;;2.67;;
419;SDS011;42600;54.408;13.016;2022-09-13T06:01:48;7.40;;;4.10;;
419;SDS011;42600;54.408;13.016;2022-09-13T06:04:14;7.13;;;3.17;;
419;SDS011;42600;54.408;13.016;2022-09-13T06:06:42;6.63;;;2.80;;
419;SDS011;42600;54.408;13.016;2022-09-13T06:09:09;7.20;;;3.57;;
419;SDS011;42600;54.408;13.016;2022-09-13T06:11:36;7.43;;;3.20;;
419;SDS011;42600;54.408;13.016;2022-09-13T06:14:03;6.20;;;3.20;;
419;SDS011;42600;54.408;13.016;2022-09-13T06:16:30;5.50;;;3.20;;
419;SDS011;42600;54.408;13.016;2022-09-13T06:18:56;12.00;;;3.47;;
419;SDS011;42600;54.408;13.016;2022-09-13T06:21:23;5.67;;;3.47;;
419;SDS011;42600;54.408;13.016;2022-09-13T06:23:51;6.50;;;3.67;;
419;SDS011;42600;54.408;13.016;2022-09-13T06:26:19;5.67;;;2.60;;
419;SDS011;42600;54.408;13.016;2022-09-13T06:28:47;8.27;;;3.77;;
419;SDS011;42600;54.408;13.016;2022-09-13T06:31:16;5.80;;;3.90;;
419;SDS011;42600;54.408;13.016;2022-09-13T06:33:45;5.33;;;3.07;;
419;SDS011;42600;54.408;13.016;2022-09-13T06:36:12;9.30;;;3.63;;
419;SDS011;42600;54.408;13.016;2022-09-13T06:38:42;6.03;;;2.63;;
419;SDS011;42600;54.408;13.016;2022-09-13T06:41:12;13.23;;;3.63;;
419;SDS011;42600;54.408;13.016;2022-09-13T06:43:39;9.77;;;4.33;;
419;SDS011;42600;54.408;13.016;2022-09-13T06:46:07;6.70;;;3.03;;
419;SDS011;42600;54.408;13.016;2022-09-13T06:48:36;9.37;;;3.63;;
419;SDS011;42600;54.408;13.016;2022-09-13T06:51:04;7.27;;;3.23;;
419;SDS011;42600;54.408;13.016;2022-09-13T06:53:32;7.30;;;3.63;;
419;SDS011;42600;54.408;13.016;2022-09-13T06:56:00;12.43;;;4.10;;
419;SDS011;42600;54.408;13.016;2022-09-13T06:58:30;4.40;;;2.50;;
419;SDS011;42600;54.408;13.016;2022-09-13T07:01:07;10.83;;;3.57;;
419;SDS011;42600;54.408;13.016;2022-09-13T07:03:37;6.00;;;3.10;;
419;SDS011;42600;54.408;13.016;2022-09-13T07:06:05;6.07;;;3.17;;
419;SDS011;42600;54.408;13.016;2022-09-13T07:08:36;6.00;;;3.30;;
419;SDS011;42600;54.408;13.016;2022-09-13T07:11:04;8.83;;;3.30;;
419;SDS011;42600;54.408;13.016;2022-09-13T07:13:33;6.53;;;3.20;;
419;SDS011;42600;54.408;13.016;2022-09-13T07:16:00;5.67;;;3.23;;
419;SDS011;42600;54.408;13.016;2022-09-13T07:18:27;9.13;;;3.23;;
419;SDS011;42600;54.408;13.016;2022-09-13T07:20:57;5.70;;;4.27;;
419;SDS011;42600;54.408;13.016;2022-09-13T07:23:25;7.13;;;3.80;;
419;SDS011;42600;54.408;13.016;2022-09-13T07:25:53;8.13;;;3.80;;
419;SDS011;42600;54.408;13.016;2022-09-13T07:28:20;4.67;;;2.60;;
419;SDS011;42600;54.408;13.016;2022-09-13T07:30:48;6.63;;;3.90;;
419;SDS011;42600;54.408;13.016;2022-09-13T07:33:14;4.87;;;3.60;;
419;SDS011;42600;54.408;13.016;2022-09-13T07:35:41;7.77;;;3.80;;
419;SDS011;42600;54.408;13.016;2022-09-13T07:38:07;7.83;;;2.97;;
419;SDS011;42600;54.408;13.016;2022-09-13T07:40:34;7.80;;;2.80;;
419;SDS011;42600;54.408;13.016;2022-09-13T07:43:01;8.37;;;3.90;;
419;SDS011;42600;54.408;13.016;2022-09-13T07:45:27;10.13;;;4.10;;
419;SDS011;42600;54.408;13.016;2022-09-13T07:47:55;12.20;;;4.30;;
419;SDS011;42600;54.408;13.016;2022-09-13T07:50:22;8.10;;;4.70;;
419;SDS011;42600;54.408;13.016;2022-09-13T07:52:49;9.00;;;2.73;;
419;SDS011;42600;54.408;13.016;2022-09-13T07:55:15;8.40;;;3.87;;
419;SDS011;42600;54.408;13.016;2022-09-13T07:57:42;13.90;;;4.03;;
419;SDS011;42600;54.408;13.016;2022-09-13T08:00:09;10.67;;;4.10;;
419;SDS011;42600;54.408;13.016;2022-09-13T08:02:36;6.73;;;4.57;;
419;SDS011;42600;54.408;13.016;2022-09-13T08:05:04;12.60;;;5.07;;
419;SDS011;42600;54.408;13.016;2022-09-13T08:07:31;12.87;;;5.73;;
419;SDS011;42600;54.408;13.016;2022-09-13T08:09:58;8.77;;;3.50;;
419;SDS011;42600;54.408;13.016;2022-09-13T08:12:24;10.50;;;3.70;;
419;SDS011;42600;54.408;13.016;2022-09-13T08:14:51;12.10;;;3.70;;
419;SDS011;42600;54.408;13.016;2022-09-13T08:17:17;12.23;;;5.20;;
419;SDS011;42600;54.408;13.016;2022-09-13T08:19:44;7.90;;;5.10;;
419;SDS011;42600;54.408;13.016;2022-09-13T08:22:12;7.53;;;3.43;;
419;SDS011;42600;54.408;13.016;2022-09-13T08:24:38;12.77;;;5.50;;
419;SDS011;42600;54.408;13.016;2022-09-13T08:27:05;6.53;;;3.67;;
419;SDS011;42600;54.408;13.016;2022-09-13T08:29:32;7.60;;;3.57;;
419;SDS011;42600;54.408;13.016;2022-09-13T08:31:58;9.30;;;3.37;;
419;SDS011;42600;54.408;13.016;2022-09-13T08:34:25;13.53;;;4.00;;
419;SDS011;42600;54.408;13.016;2022-09-13T08:36:52;10.53;;;3.77;;
419;SDS011;42600;54.408;13.016;2022-09-13T08:39:20;10.13;;;4.30;;
419;SDS011;42600;54.408;13.016;2022-09-13T08:41:56;8.37;;;3.73;;
419;SDS011;42600;54.408;13.016;2022-09-13T08:44:33;5.90;;;3.57;;
419;SDS011;42600;54.408;13.016;2022-09-13T08:47:08;13.00;;;4.57;;
419;SDS011;42600;54.408;13.016;2022-09-13T08:49:57;6.80;;;3.73;;
419;SDS011;42600;54.408;13.016;2022-09-13T08:52:29;15.90;;;4.17;;
419;SDS011;42600;54.408;13.016;2022-09-13T08:55:01;6.07;;;3.47;;
419;SDS011;42600;54.408;13.016;2022-09-13T08:57:34;11.83;;;3.50;;
419;SDS011;42600;54.408;13.016;2022-09-13T09:00:11;7.93;;;2.80;;
419;SDS011;42600;54.408;13.016;2022-09-13T09:02:47;7.33;;;2.97;;
419;SDS011;42600;54.408;13.016;2022-09-13T09:05:30;8.40;;;2.20;;
419;SDS011;42600;54.408;13.016;2022-09-13T09:08:02;6.50;;;2.50;;
419;SDS011;42600;54.408;13.016;2022-09-13T09:10:43;3.07;;;2.03;;
419;SDS011;42600;54.408;13.016;2022-09-13T09:13:13;9.87;;;2.30;;
419;SDS011;42600;54.408;13.016;2022-09-13T09:15:47;6.27;;;2.80;;
419;SDS011;42600;54.408;13.016;2022-09-13T09:18:18;7.60;;;2.50;;
419;SDS011;42600;54.408;13.016;2022-09-13T09:20:48;5.43;;;2.40;;
419;SDS011;42600;54.408;13.016;2022-09-13T09:23:18;4.73;;;2.40;;
419;SDS011;42600;54.408;13.016;2022-09-13T09:25:47;6.37;;;2.20;;
419;SDS011;42600;54.408;13.016;2022-09-13T09:28:17;5.93;;;2.67;;
419;SDS011;42600;54.408;13.016;2022-09-13T09:30:45;15.33;;;2.73;;
419;SDS011;42600;54.408;13.016;2022-09-13T09:33:27;6.33;;;2.20;;
419;SDS011;42600;54.408;13.016;2022-09-13T09:36:08;4.83;;;1.57;;
419;SDS011;42600;54.408;13.016;2022-09-13T09:38:40;6.50;;;1.20;;
419;SDS011;42600;54.408;13.016;2022-09-13T09:41:12;7.00;;;1.70;;
419;SDS011;42600;54.408;13.016;2022-09-13T09:43:44;5.70;;;1.33;;
419;SDS011;42600;54.408;13.016;2022-09-13T09:46:14;3.63;;;0.93;;
419;SDS011;42600;54.408;13.016;2022-09-13T09:48:43;5.73;;;1.43;;
419;SDS011;42600;54.408;13.016;2022-09-13T09:51:14;2.90;;;0.73;;
419;SDS011;42600;54.408;13.016;2022-09-13T09:53:44;5.07;;;1.20;;
419;SDS011;42600;54.408;13.016;2022-09-13T09:56:17;2.80;;;1.20;;
419;SDS011;42600;54.408;13.016;2022-09-13T09:58:49;3.27;;;0.83;;
419;SDS011;42600;54.408;13.016;2022-09-13T10:01:18;9.67;;;2.20;;
419;SDS011;42600;54.408;13.016;2022-09-13T10:03:49;5.17;;;1.23;;
419;SDS011;42600;54.408;13.016;2022-09-13T10:06:19;2.43;;;0.97;;
419;SDS011;42600;54.408;13.016;2022-09-13T10:08:48;1.50;;;1.00;;
419;SDS011;42600;54.408;13.016;2022-09-13T10:11:25;3.83;;;0.90;;
419;SDS011;42600;54.408;13.016;2022-09-13T10:14:04;3.57;;;1.33;;
419;SDS011;42600;54.408;13.016;2022-09-13T10:16:30;1.97;;;0.80;;
419;SDS011;42600;54.408;13.016;2022-09-13T10:21:58;7.20;;;1.23;;
419;SDS011;42600;54.408;13.016;2022-09-13T10:24:25;6.17;;;1.30;;
419;SDS011;42600;54.408;13.016;2022-09-13T10:26:54;2.20;;;1.20;;
419;SDS011;42600;54.408;13.016;2022-09-13T10:29:22;9.47;;;1.47;;
419;SDS011;42600;54.408;13.016;2022-09-13T10:31:51;2.20;;;0.90;;
419;SDS011;42600;54.408;13.016;2022-09-13T10:34:19;4.47;;;1.23;;
419;SDS011;42600;54.408;13.016;2022-09-13T10:36:50;1.80;;;0.90;;
419;SDS011;42600;54.408;13.016;2022-09-13T10:39:20;4.30;;;1.23;;
419;SDS011;42600;54.408;13.016;2022-09-13T10:41:49;5.37;;;1.27;;
419;SDS011;42600;54.408;13.016;2022-09-13T10:44:23;2.47;;;1.10;;
419;SDS011;42600;54.408;13.016;2022-09-13T10:46:53;1.90;;;0.90;;
419;SDS011;42600;54.408;13.016;2022-09-13T10:49:40;1.83;;;0.90;;
419;SDS011;42600;54.408;13.016;2022-09-13T10:52:29;2.13;;;0.90;;
419;SDS011;42600;54.408;13.016;2022-09-13T11:00:48;5.27;;;1.13;;
419;SDS011;42600;54.408;13.016;2022-09-13T11:03:33;5.33;;;0.90;;
419;SDS011;42600;54.408;13.016;2022-09-13T11:06:10;6.20;;;0.93;;
419;SDS011;42600;54.408;13.016;2022-09-13T11:08:47;3.93;;;1.00;;
419;SDS011;42600;54.408;13.016;2022-09-13T11:11:21;1.80;;;1.07;;
419;SDS011;42600;54.408;13.016;2022-09-13T11:13:59;4.30;;;0.70;;
419;SDS011;42600;54.408;13.016;2022-09-13T11:16:39;3.57;;;0.67;;
419;SDS011;42600;54.408;13.016;2022-09-13T11:19:26;14.73;;;1.70;;
419;SDS011;42600;54.408;13.016;2022-09-13T11:22:14;3.07;;;0.90;;
419;SDS011;42600;54.408;13.016;2022-09-13T11:24:56;4.23;;;0.90;;
419;SDS011;42600;54.408;13.016;2022-09-13T11:27:36;4.47;;;0.80;;
419;SDS011;42600;54.408;13.016;2022-09-13T11:30:14;1.53;;;0.83;;
419;SDS011;42600;54.408;13.016;2022-09-13T11:32:48;1.60;;;0.70;;
419;SDS011;42600;54.408;13.016;2022-09-13T11:35:28;1.40;;;0.80;;
419;SDS011;42600;54.408;13.016;2022-09-13T11:38:11;2.40;;;0.50;;
419;SDS011;42600;54.408;13.016;2022-09-13T11:40:48;3.10;;;0.70;;
419;SDS011;42600;54.408;13.016;2022-09-13T11:43:35;1.00;;;0.50;;
419;SDS011;42600;54.408;13.016;2022-09-13T11:46:13;2.07;;;0.60;;
419;SDS011;42600;54.408;13.016;2022-09-13T11:48:56;3.30;;;0.80;;
419;SDS011;42600;54.408;13.016;2022-09-13T11:51:47;1.00;;;0.40;;
419;SDS011;42600;54.408;13.016;2022-09-13T11:54:22;2.70;;;0.80;;
419;SDS011;42600;54.408;13.016;2022-09-13T11:56:58;4.90;;;1.00;;
419;SDS011;42600;54.408;13.016;2022-09-13T11:59:32;4.33;;;1.03;;
419;SDS011;42600;54.408;13.016;2022-09-13T12:02:13;3.03;;;0.70;;
419;SDS011;42600;54.408;13.016;2022-09-13T12:04:48;2.93;;;1.03;;
419;SDS011;42600;54.408;13.016;2022-09-13T12:10:03;1.80;;;1.33;;
419;SDS011;42600;54.408;13.016;2022-09-13T12:12:38;9.17;;;1.33;;
419;SDS011;42600;54.408;13.016;2022-09-13T12:15:06;1.40;;;0.60;;
419;SDS011;42600;54.408;13.016;2022-09-13T12:17:41;10.53;;;1.00;;
419;SDS011;42600;54.408;13.016;2022-09-13T12:20:14;1.17;;;0.53;;
419;SDS011;42600;54.408;13.016;2022-09-13T12:22:45;2.80;;;0.50;;
419;SDS011;42600;54.408;13.016;2022-09-13T12:25:17;6.43;;;1.33;;
419;SDS011;42600;54.408;13.016;2022-09-13T12:27:49;5.40;;;1.23;;
419;SDS011;42600;54.408;13.016;2022-09-13T12:30:22;2.80;;;0.67;;
419;SDS011;42600;54.408;13.016;2022-09-13T12:32:50;7.70;;;1.10;;
419;SDS011;42600;54.408;13.016;2022-09-13T12:35:20;2.00;;;1.17;;
419;SDS011;42600;54.408;13.016;2022-09-13T12:37:57;1.37;;;0.57;;
419;SDS011;42600;54.408;13.016;2022-09-13T12:40:42;1.43;;;0.80;;
419;SDS011;42600;54.408;13.016;2022-09-13T12:43:30;1.30;;;0.50;;
419;SDS011;42600;54.408;13.016;2022-09-13T12:46:24;1.70;;;0.90;;
419;SDS011;42600;54.408;13.016;2022-09-13T12:49:13;8.23;;;1.27;;
419;SDS011;42600;54.408;13.016;2022-09-13T12:51:59;2.47;;;0.87;;
419;SDS011;42600;54.408;13.016;2022-09-13T12:54:38;5.00;;;0.80;;
419;SDS011;42600;54.408;13.016;2022-09-13T12:57:16;1.33;;;0.77;;
419;SDS011;42600;54.408;13.016;2022-09-13T12:59:57;2.17;;;0.60;;
419;SDS011;42600;54.408;13.016;2022-09-13T13:02:36;1.53;;;0.80;;
419;SDS011;42600;54.408;13.016;2022-09-13T13:05:05;11.83;;;1.13;;
419;SDS011;42600;54.408;13.016;2022-09-13T13:07:50;1.00;;;0.43;;
419;SDS011;42600;54.408;13.016;2022-09-13T13:10:25;1.50;;;0.70;;
419;SDS011;42600;54.408;13.016;2022-09-13T13:12:55;3.90;;;1.30;;
419;SDS011;42600;54.408;13.016;2022-09-13T13:15:54;3.13;;;1.17;;
419;SDS011;42600;54.408;13.016;2022-09-13T13:18:29;4.17;;;0.87;;
419;SDS011;42600;54.408;13.016;2022-09-13T13:21:21;11.70;;;1.20;;
419;SDS011;42600;54.408;13.016;2022-09-13T13:33:20;4.27;;;1.20;;
419;SDS011;42600;54.408;13.016;2022-09-13T13:35:49;3.73;;;0.70;;
419;SDS011;42600;54.408;13.016;2022-09-13T13:38:35;3.60;;;0.83;;
419;SDS011;42600;54.408;13.016;2022-09-13T13:41:07;9.33;;;1.37;;
419;SDS011;42600;54.408;13.016;2022-09-13T13:53:40;1.77;;;0.73;;
419;SDS011;42600;54.408;13.016;2022-09-13T13:56:17;4.40;;;1.20;;
419;SDS011;42600;54.408;13.016;2022-09-13T13:58:49;4.63;;;1.00;;
419;SDS011;42600;54.408;13.016;2022-09-13T14:01:20;6.67;;;1.27;;
419;SDS011;42600;54.408;13.016;2022-09-13T14:03:53;3.37;;;0.83;;
419;SDS011;42600;54.408;13.016;2022-09-13T14:06:32;3.43;;;0.73;;
419;SDS011;42600;54.408;13.016;2022-09-13T14:09:10;6.53;;;1.10;;
419;SDS011;42600;54.408;13.016;2022-09-13T14:11:50;2.70;;;0.93;;
419;SDS011;42600;54.408;13.016;2022-09-13T14:14:30;1.07;;;0.50;;
419;SDS011;42600;54.408;13.016;2022-09-13T14:17:20;3.77;;;1.27;;
419;SDS011;42600;54.408;13.016;2022-09-13T14:20:14;3.77;;;0.93;;
419;SDS011;42600;54.408;13.016;2022-09-13T14:22:43;2.60;;;0.70;;
419;SDS011;42600;54.408;13.016;2022-09-13T14:25:15;1.20;;;0.60;;
419;SDS011;42600;54.408;13.016;2022-09-13T14:27:48;3.13;;;0.97;;
419;SDS011;42600;54.408;13.016;2022-09-13T14:30:19;5.70;;;0.67;;
419;SDS011;42600;54.408;13.016;2022-09-13T14:32:48;4.30;;;0.87;;
419;SDS011;42600;54.408;13.016;2022-09-13T14:35:24;4.23;;;1.10;;
419;SDS011;42600;54.408;13.016;2022-09-13T14:37:56;3.47;;;0.77;;
419;SDS011;42600;54.408;13.016;2022-09-13T14:40:36;2.33;;;0.57;;
419;SDS011;42600;54.408;13.016;2022-09-13T14:43:12;2.43;;;0.73;;
419;SDS011;42600;54.408;13.016;2022-09-13T14:45:41;2.70;;;1.23;;
419;SDS011;42600;54.408;13.016;2022-09-13T14:48:11;3.77;;;1.47;;
419;SDS011;42600;54.408;13.016;2022-09-13T14:50:45;7.13;;;1.07;;
419;SDS011;42600;54.408;13.016;2022-09-13T14:53:17;2.17;;;0.70;;
419;SDS011;42600;54.408;13.016;2022-09-13T14:55:48;2.70;;;1.13;;
419;SDS011;42600;54.408;13.016;2022-09-13T14:58:19;1.93;;;1.00;;
419;SDS011;42600;54.408;13.016;2022-09-13T15:00:51;5.47;;;1.00;;
419;SDS011;42600;54.408;13.016;2022-09-13T15:03:21;4.90;;;1.00;;
419;SDS011;42600;54.408;13.016;2022-09-13T15:05:49;2.00;;;1.03;;
419;SDS011;42600;54.408;13.016;2022-09-13T15:08:22;4.40;;;1.53;;
419;SDS011;42600;54.408;13.016;2022-09-13T15:10:52;1.50;;;1.00;;
419;SDS011;42600;54.408;13.016;2022-09-13T15:13:22;2.90;;;0.60;;
419;SDS011;42600;54.408;13.016;2022-09-13T15:15:48;15.03;;;1.40;;
419;SDS011;42600;54.408;13.016;2022-09-13T15:18:24;4.30;;;0.90;;
419;SDS011;42600;54.408;13.016;2022-09-13T15:20:56;8.23;;;1.20;;
419;SDS011;42600;54.408;13.016;2022-09-13T15:23:27;4.40;;;1.03;;
419;SDS011;42600;54.408;13.016;2022-09-13T15:25:59;2.70;;;1.37;;
419;SDS011;42600;54.408;13.016;2022-09-13T15:28:32;4.40;;;1.07;;
419;SDS011;42600;54.408;13.016;2022-09-13T15:31:18;3.80;;;1.13;;
419;SDS011;42600;54.408;13.016;2022-09-13T15:33:45;4.50;;;1.30;;
419;SDS011;42600;54.408;13.016;2022-09-13T15:36:13;4.20;;;1.40;;
419;SDS011;42600;54.408;13.016;2022-09-13T15:38:55;13.10;;;1.00;;
419;SDS011;42600;54.408;13.016;2022-09-13T15:41:27;27.70;;;1.67;;
419;SDS011;42600;54.408;13.016;2022-09-13T15:43:55;1.90;;;0.63;;
419;SDS011;42600;54.408;13.016;2022-09-13T15:46:23;4.00;;;0.90;;
419;SDS011;42600;54.408;13.016;2022-09-13T15:48:51;2.90;;;0.83;;
419;SDS011;42600;54.408;13.016;2022-09-13T15:51:19;5.03;;;0.80;;
419;SDS011;42600;54.408;13.016;2022-09-13T15:53:46;2.83;;;0.87;;
419;SDS011;42600;54.408;13.016;2022-09-13T15:56:15;3.03;;;1.00;;
419;SDS011;42600;54.408;13.016;2022-09-13T15:58:43;2.10;;;0.73;;
419;SDS011;42600;54.408;13.016;2022-09-13T16:01:11;3.27;;;0.90;;
419;SDS011;42600;54.408;13.016;2022-09-13T16:03:40;2.17;;;1.00;;